Time;durP1;ratioP1;P1;durP2;ratioP2;P2;SDS_P1;SDS_P2;PMS_P1;PMS_P2;Temp;Humidity;BMP_temperature;BMP_pressure;BME280_temperature;BME280_humidity;BME280_pressure;Samples;Min_cycle;Max_cycle;Signal;HPM_P1;HPM_P2
2022/04/12 18:53:03;;;;;;;29.88;18.02;;;;;;;;;;5010435;28;20088;-73
2022/04/12 18:55:30;;;;;;;22.85;16.27;;;;;;;;;;4989626;28;20096;-73
2022/04/12 18:57:58;;;;;;;25.30;18.33;;;;;;;;;;5009225;28;20131;-73
2022/04/12 19:00:24;;;;;;;29.30;19.40;;;;;;;;;;5010027;28;20133;-73
2022/04/12 19:02:52;;;;;;;29.60;18.40;;;;;;;;;;5028734;28;20037;-73
2022/04/12 19:05:22;;;;;;;29.27;19.05;;;;;;;;;;5010996;28;20124;-74
2022/04/12 19:07:49;;;;;;;30.67;21.00;;;;;;;;;;5011403;28;20037;-74
2022/04/12 19:10:16;;;;;;;21.98;17.17;;;;;;;;;;5028632;28;20308;-73
2022/04/12 19:12:45;;;;;;;35.97;22.58;;;;;;;;;;5021381;28;20045;-74
2022/04/12 19:15:12;;;;;;;31.15;20.73;;;;;;;;;;5019801;28;20081;-74
2022/04/12 19:17:39;;;;;;;27.30;19.85;;;;;;;;;;5016963;28;20472;-74
2022/04/12 19:20:12;;;;;;;26.30;20.50;;;;;;;;;;5027147;28;20053;-72
2022/04/12 19:22:46;;;;;;;31.90;22.17;;;;;;;;;;5010183;28;20632;-73
2022/04/12 19:25:18;;;;;;;27.42;19.38;;;;;;;;;;5024246;28;20037;-74
2022/04/12 19:27:46;;;;;;;29.23;21.58;;;;;;;;;;5027632;28;20111;-74
2022/04/12 19:30:14;;;;;;;29.15;17.88;;;;;;;;;;5029680;28;20064;-75
2022/04/12 19:32:45;;;;;;;37.97;21.00;;;;;;;;;;5006924;28;20076;-74
2022/04/12 19:35:18;;;;;;;27.03;19.77;;;;;;;;;;5023691;28;20037;-74
2022/04/12 19:37:48;;;;;;;29.02;19.48;;;;;;;;;;5027357;28;20057;-74
2022/04/12 19:40:32;;;;;;;22.65;15.90;;;;;;;;;;5009972;28;20041;-75
2022/04/12 19:43:00;;;;;;;23.75;17.80;;;;;;;;;;5025431;28;20069;-73
2022/04/12 19:45:28;;;;;;;23.48;16.83;;;;;;;;;;5026828;28;20042;-74
2022/04/12 19:47:54;;;;;;;27.48;17.23;;;;;;;;;;5022083;28;20037;-74
2022/04/12 19:50:20;;;;;;;25.83;18.25;;;;;;;;;;5027335;28;20679;-74
2022/04/12 19:52:47;;;;;;;19.55;16.42;;;;;;;;;;5009304;28;20057;-74
2022/04/12 19:55:16;;;;;;;19.20;14.10;;;;;;;;;;5009141;28;20041;-74
2022/04/12 19:58:05;;;;;;;21.65;16.98;;;;;;;;;;5027108;28;20037;-74
2022/04/12 20:00:32;;;;;;;22.17;18.88;;;;;;;;;;5009288;28;20521;-74
2022/04/12 20:03:00;;;;;;;22.52;14.10;;;;;;;;;;5027082;28;20049;-73
2022/04/12 20:05:33;;;;;;;20.73;15.52;;;;;;;;;;5025660;28;20049;-74
2022/04/12 20:07:59;;;;;;;20.20;16.65;;;;;;;;;;5013167;28;20044;-73
2022/04/12 20:10:25;;;;;;;23.05;15.43;;;;;;;;;;5029227;28;20030;-74
2022/04/12 20:12:52;;;;;;;16.25;14.48;;;;;;;;;;5029252;28;20071;-74
2022/04/12 20:15:18;;;;;;;15.57;12.93;;;;;;;;;;5031082;28;20132;-75
2022/04/12 20:17:46;;;;;;;20.33;15.55;;;;;;;;;;4996868;28;20084;-72
2022/04/12 20:20:14;;;;;;;19.30;15.27;;;;;;;;;;5030523;28;20069;-73
2022/04/12 20:22:41;;;;;;;21.50;17.23;;;;;;;;;;5026087;28;20487;-73
2022/04/12 20:25:11;;;;;;;18.33;15.50;;;;;;;;;;5014832;28;20484;-74
2022/04/12 20:27:36;;;;;;;19.33;14.38;;;;;;;;;;5015379;28;20100;-74
2022/04/12 20:30:04;;;;;;;13.98;12.45;;;;;;;;;;5032219;28;20056;-74
2022/04/12 20:32:31;;;;;;;17.38;15.45;;;;;;;;;;5031490;28;20048;-73
2022/04/12 20:34:56;;;;;;;17.88;15.50;;;;;;;;;;5024977;28;20049;-73
2022/04/12 20:37:25;;;;;;;15.15;13.48;;;;;;;;;;5020290;28;20072;-74
2022/04/12 20:39:53;;;;;;;16.83;14.63;;;;;;;;;;5011558;28;20120;-74
2022/04/12 20:42:23;;;;;;;17.00;14.40;;;;;;;;;;5029964;28;20037;-74
2022/04/12 20:44:51;;;;;;;15.32;12.95;;;;;;;;;;5029183;28;20036;-74
2022/04/12 20:47:18;;;;;;;20.08;13.43;;;;;;;;;;5031686;28;20049;-73
2022/04/12 20:49:46;;;;;;;16.95;13.00;;;;;;;;;;5014120;28;20045;-74
2022/04/12 20:52:14;;;;;;;14.07;12.73;;;;;;;;;;5014171;28;20042;-74
2022/04/12 20:54:40;;;;;;;16.95;12.45;;;;;;;;;;5032330;28;20132;-75
2022/04/12 20:57:06;;;;;;;15.68;14.07;;;;;;;;;;5014423;28;20577;-75
2022/04/12 20:59:42;;;;;;;;;;;;;;;;;;;;;
2022/04/12 21:02:09;;;;;;;14.75;11.70;;;;;;;;;;4997768;28;20049;-74
2022/04/12 21:04:35;;;;;;;22.27;15.07;;;;;;;;;;5032044;28;20120;-74
2022/04/12 21:07:10;;;;;;;16.48;14.38;;;;;;;;;;5014001;28;20700;-73
2022/04/12 21:09:39;;;;;;;21.98;13.93;;;;;;;;;;5012728;28;20038;-73
2022/04/12 21:12:09;;;;;;;17.30;14.02;;;;;;;;;;5048797;28;20052;-84
2022/04/12 21:14:39;;;;;;;16.30;13.40;;;;;;;;;;5025522;28;20079;-82
2022/04/12 21:17:05;;;;;;;20.27;16.00;;;;;;;;;;5037936;28;20017;-83
2022/04/12 21:19:30;;;;;;;16.70;12.95;;;;;;;;;;5039678;28;20041;-86
2022/04/12 21:21:57;;;;;;;17.45;14.85;;;;;;;;;;5056196;28;20039;-84
2022/04/12 21:24:23;;;;;;;14.30;13.00;;;;;;;;;;5040277;28;20056;-85
2022/04/12 21:26:50;;;;;;;14.65;13.23;;;;;;;;;;5038583;28;20076;-84
2022/04/12 21:29:15;;;;;;;15.63;13.57;;;;;;;;;;5021233;28;20040;-84
2022/04/12 21:31:41;;;;;;;12.40;11.32;;;;;;;;;;5037268;28;20046;-84
2022/04/12 21:34:07;;;;;;;14.25;12.77;;;;;;;;;;5053383;28;20065;-83
2022/04/12 21:36:33;;;;;;;16.02;14.45;;;;;;;;;;5047038;28;20041;-83
2022/04/12 21:38:59;;;;;;;15.27;13.77;;;;;;;;;;5050123;28;20045;-83
2022/04/12 21:41:25;;;;;;;12.95;11.65;;;;;;;;;;5034446;28;20041;-83
2022/04/12 21:43:52;;;;;;;14.73;13.23;;;;;;;;;;5038283;28;20040;-84
2022/04/12 21:46:18;;;;;;;15.05;13.60;;;;;;;;;;5055725;28;20057;-84
2022/04/12 21:48:44;;;;;;;14.05;12.75;;;;;;;;;;5056213;28;20047;-83
2022/04/12 21:51:10;;;;;;;14.70;13.35;;;;;;;;;;5022975;28;20056;-84
2022/04/12 21:53:36;;;;;;;14.73;13.20;;;;;;;;;;5039337;28;20055;-83
2022/04/12 21:56:07;;;;;;;15.63;14.00;;;;;;;;;;5024072;28;20041;-83
2022/04/12 21:58:33;;;;;;;14.10;12.65;;;;;;;;;;5056677;28;20045;-85
2022/04/12 22:01:00;;;;;;;17.05;15.38;;;;;;;;;;5039528;28;20022;-83
2022/04/12 22:03:26;;;;;;;21.50;14.80;;;;;;;;;;5041211;28;20048;-83
2022/04/12 22:05:51;;;;;;;17.55;15.50;;;;;;;;;;5057879;28;20029;-85
2022/04/12 22:08:17;;;;;;;21.40;16.75;;;;;;;;;;5057524;28;20687;-82
2022/04/12 22:10:44;;;;;;;23.15;16.88;;;;;;;;;;5058057;28;20109;-83
2022/04/12 22:13:10;;;;;;;20.20;14.93;;;;;;;;;;5053944;28;20060;-83
2022/04/12 22:15:36;;;;;;;21.73;14.70;;;;;;;;;;5039730;28;20046;-85
2022/04/12 22:18:02;;;;;;;21.42;12.00;;;;;;;;;;5039071;28;20142;-82
2022/04/12 22:20:28;;;;;;;19.30;12.85;;;;;;;;;;5051973;28;20041;-84
2022/04/12 22:22:53;;;;;;;28.00;16.13;;;;;;;;;;5054974;28;20061;-84
2022/04/12 22:25:19;;;;;;;22.23;13.85;;;;;;;;;;5038773;28;20021;-83
2022/04/12 22:27:47;;;;;;;14.10;12.68;;;;;;;;;;5055656;28;20029;-84
2022/04/12 22:30:13;;;;;;;14.10;12.70;;;;;;;;;;5054718;28;20033;-83
2022/04/12 22:32:40;;;;;;;15.77;14.02;;;;;;;;;;5038942;28;20049;-82
2022/04/12 22:35:08;;;;;;;11.65;10.55;;;;;;;;;;5056073;28;20037;-84
2022/04/12 22:37:41;;;;;;;11.82;10.73;;;;;;;;;;5040249;28;20045;-84
2022/04/12 22:40:10;;;;;;;12.73;11.60;;;;;;;;;;5039843;28;20042;-82
2022/04/12 22:42:36;;;;;;;14.15;12.82;;;;;;;;;;5056586;28;20036;-84
2022/04/12 22:45:02;;;;;;;12.75;11.13;;;;;;;;;;5040016;28;20022;-84
